Time;durP1;ratioP1;P1;durP2;ratioP2;P2;SDS_P1;SDS_P2;PMS_P1;PMS_P2;Temp;Humidity;BMP_temperature;BMP_pressure;BME280_temperature;BME280_humidity;BME280_pressure;Samples;Min_cycle;Max_cycle;Signal;HPM_P1;HPM_P2
2022/09/13 00:00:43;;;;;;;3.08;1.42;;;14.90;99.90;;;14.61;100.00;96851.72;4955468;28;21232;-51
2022/09/13 00:03:10;;;;;;;1.35;1.17;;;14.80;99.90;;;14.56;100.00;96849.31;4958780;28;20034;-52
2022/09/13 00:05:38;;;;;;;2.10;1.05;;;14.80;99.90;;;14.56;100.00;96856.44;4954678;28;21829;-52
2022/09/13 00:08:05;;;;;;;1.48;1.10;;;14.80;99.90;;;14.56;100.00;96856.44;4959271;28;20026;-50
2022/09/13 00:10:34;;;;;;;1.35;1.15;;;14.80;99.90;;;14.57;100.00;96868.72;4954117;28;20061;-50
2022/09/13 00:13:00;;;;;;;1.73;1.00;;;14.80;99.90;;;14.43;100.00;96843.06;4954066;28;20541;-52
2022/09/13 00:15:27;;;;;;;2.40;0.90;;;14.80;99.90;;;14.51;100.00;96862.00;4952680;28;20606;-51
2022/09/13 00:17:52;;;;;;;1.20;1.10;;;14.70;99.90;;;14.47;100.00;96849.88;4959982;28;20038;-50
2022/09/13 00:20:18;;;;;;;1.67;0.98;;;14.70;99.90;;;14.46;100.00;96840.22;4951603;28;20029;-51
2022/09/13 00:22:44;;;;;;;1.50;1.10;;;14.70;99.90;;;14.44;100.00;96847.41;4959376;28;20430;-49
2022/09/13 00:25:11;;;;;;;3.20;0.95;;;14.70;99.90;;;14.44;100.00;96853.56;4956510;28;20026;-53
2022/09/13 00:27:37;;;;;;;2.70;1.00;;;14.70;99.90;;;14.37;100.00;96835.47;4951887;28;20183;-53
2022/09/13 00:30:06;;;;;;;0.95;0.85;;;14.70;99.90;;;14.39;100.00;96841.53;4941689;28;20042;-52
2022/09/13 00:32:34;;;;;;;1.33;0.90;;;14.60;99.90;;;14.37;100.00;96833.66;4958669;28;20070;-52
2022/09/13 00:35:02;;;;;;;0.90;0.65;;;14.60;99.90;;;14.36;100.00;96841.75;4961393;28;20058;-49
2022/09/13 00:37:27;;;;;;;1.45;0.98;;;14.60;99.90;;;14.38;100.00;96845.16;4955163;28;20248;-51
2022/09/13 00:39:53;;;;;;;3.78;1.15;;;14.60;99.90;;;14.37;100.00;96843.44;4957984;28;20125;-51
2022/09/13 00:42:28;;;;;;;2.85;1.10;;;14.60;99.90;;;14.33;100.00;96840.94;4956309;28;20039;-52
2022/09/13 00:45:07;;;;;;;1.45;1.13;;;14.60;99.90;;;14.31;100.00;96847.31;4967299;28;20027;-51
2022/09/13 00:47:52;;;;;;;2.15;1.10;;;14.60;99.90;;;14.18;100.00;96836.59;4958440;28;20120;-53
2022/09/13 00:50:36;;;;;;;1.27;0.90;;;14.50;99.90;;;14.20;100.00;96849.78;4945579;28;20034;-52
2022/09/13 00:53:09;;;;;;;2.22;0.98;;;14.50;99.90;;;14.10;100.00;96839.72;4975383;28;20727;-52
2022/09/13 00:55:47;;;;;;;1.33;0.85;;;14.40;99.90;;;14.05;100.00;96836.50;4959235;28;20030;-52
2022/09/13 00:58:30;;;;;;;1.63;1.00;;;14.40;99.90;;;14.00;100.00;96835.91;4962812;28;20828;-49
2022/09/13 01:01:01;;;;;;;2.90;1.10;;;14.30;99.90;;;13.93;100.00;96826.63;4945380;28;20124;-53
2022/09/13 01:03:30;;;;;;;3.05;0.95;;;14.20;99.90;;;13.83;100.00;96818.34;4964319;28;20042;-53
2022/09/13 01:06:04;;;;;;;1.98;1.00;;;14.10;99.90;;;13.77;100.00;96815.22;4941590;28;20030;-52
2022/09/13 01:08:31;;;;;;;1.05;0.90;;;14.00;99.90;;;13.72;100.00;96820.78;4961768;28;20034;-51
2022/09/13 01:11:00;;;;;;;2.63;1.20;;;14.00;99.90;;;13.65;100.00;96817.63;4958203;28;21070;-51
2022/09/13 01:13:32;;;;;;;1.08;0.80;;;13.90;99.90;;;13.61;100.00;96809.97;4946518;28;20121;-51
2022/09/13 01:15:59;;;;;;;1.35;1.25;;;13.90;99.90;;;13.57;100.00;96819.88;4942642;28;20666;-50
2022/09/13 01:18:25;;;;;;;1.63;1.20;;;13.90;99.90;;;13.54;100.00;96810.31;4946312;28;20049;-52
2022/09/13 01:22:00;;;;;;;2.13;1.33;;;13.80;99.90;;;13.49;100.00;96812.38;4963062;28;20466;-53
2022/09/13 01:24:51;;;;;;;2.55;1.42;;;13.80;99.90;;;13.44;100.00;96814.44;4917554;28;20051;-51
2022/09/13 01:27:41;;;;;;;3.53;1.33;;;13.80;99.90;;;13.40;100.00;96818.19;4964964;28;20045;-49
2022/09/13 01:30:19;;;;;;;1.88;1.38;;;13.70;99.90;;;13.38;100.00;96825.38;4946036;28;20097;-53
2022/09/13 01:33:21;;;;;;;2.22;1.30;;;13.70;99.90;;;13.39;100.00;96820.94;4941443;28;20030;-52
2022/09/13 01:36:31;;;;;;;3.08;1.30;;;13.70;99.90;;;13.31;100.00;96811.63;4950126;28;20031;-53
2022/09/13 01:39:05;;;;;;;2.65;1.38;;;13.60;99.90;;;13.32;100.00;96815.16;4962327;28;20118;-52
2022/09/13 01:42:07;;;;;;;1.90;1.42;;;13.60;99.90;;;13.34;100.00;96823.84;4958063;28;20034;-53
2022/09/13 01:44:45;;;;;;;1.75;1.40;;;13.60;99.90;;;13.33;100.00;96817.72;4959973;28;20261;-53
2022/09/13 01:47:40;;;;;;;2.22;1.60;;;13.60;99.90;;;13.35;100.00;96821.13;4973500;28;20042;-51
2022/09/13 01:50:33;;;;;;;1.90;1.30;;;13.70;99.90;;;13.38;100.00;96816.59;4969456;28;20031;-50
2022/09/13 01:53:04;;;;;;;2.13;1.40;;;13.70;99.90;;;13.34;100.00;96806.16;4953326;28;20022;-52
2022/09/13 01:55:46;;;;;;;2.42;1.40;;;13.70;99.90;;;13.39;100.00;96813.84;4959022;28;20038;-52
2022/09/13 01:58:44;;;;;;;2.45;1.33;;;13.70;99.90;;;13.41;100.00;96819.06;4958104;28;20045;-50
2022/09/13 02:01:28;;;;;;;1.77;1.25;;;13.70;99.90;;;13.43;100.00;96823.31;4946050;28;20443;-53
2022/09/13 02:04:04;;;;;;;2.20;1.45;;;13.70;99.90;;;13.46;100.00;96827.56;4951353;28;20097;-51
2022/09/13 02:06:36;;;;;;;1.42;1.20;;;13.70;99.90;;;13.47;100.00;96829.28;4965707;28;20055;-51
2022/09/13 02:09:10;;;;;;;1.38;1.27;;;13.80;99.90;;;13.45;100.00;96820.59;4949372;28;20030;-53
2022/09/13 02:11:39;;;;;;;1.75;1.33;;;13.80;99.90;;;13.39;100.00;96803.25;4945058;28;20434;-53
2022/09/13 02:14:16;;;;;;;1.50;1.25;;;13.80;99.90;;;13.48;100.00;96826.56;4950658;28;21921;-52
2022/09/13 02:16:53;;;;;;;1.55;1.35;;;13.80;99.90;;;13.48;100.00;96825.72;4964107;28;20030;-52
2022/09/13 02:19:28;;;;;;;2.05;1.30;;;13.80;99.90;;;13.43;100.00;96812.72;4950050;28;20955;-51
2022/09/13 02:21:59;;;;;;;2.03;1.55;;;13.70;99.90;;;13.42;100.00;96832.19;4943540;28;20038;-52
2022/09/13 02:24:36;;;;;;;3.45;1.30;;;13.70;99.90;;;13.41;100.00;96827.88;4959376;28;20495;-51
2022/09/13 02:27:09;;;;;;;2.03;1.42;;;13.70;99.90;;;13.40;100.00;96830.59;4946629;28;20527;-53
2022/09/13 02:29:39;;;;;;;1.35;1.20;;;13.70;99.90;;;13.37;100.00;96831.63;4938969;28;20136;-52
2022/09/13 02:32:25;;;;;;;2.00;1.67;;;13.70;99.90;;;13.39;100.00;96831.53;4943883;28;20077;-51
2022/09/13 02:34:58;;;;;;;2.65;1.50;;;13.70;99.90;;;13.41;100.00;96825.22;4937474;28;20038;-52
2022/09/13 02:37:26;;;;;;;1.75;1.33;;;13.70;99.90;;;13.42;100.00;96820.75;4954389;28;20049;-53
2022/09/13 02:39:59;;;;;;;1.80;1.40;;;13.70;99.90;;;13.41;100.00;96830.50;4944803;28;20512;-52
2022/09/13 02:42:35;;;;;;;1.98;1.40;;;13.70;99.90;;;13.41;100.00;96830.50;4966416;23;20070;-42
2022/09/13 02:45:02;;;;;;;2.70;1.45;;;13.70;99.90;;;13.38;100.00;96824.53;4963447;28;20891;-43
2022/09/13 02:47:56;;;;;;;1.45;1.30;;;13.70;99.90;;;13.39;100.00;96823.56;4947561;28;20050;-44
2022/09/13 02:50:48;;;;;;;1.85;1.40;;;13.70;99.90;;;13.36;100.00;96824.63;4955552;28;20622;-41
2022/09/13 02:53:24;;;;;;;2.33;1.38;;;13.70;99.90;;;13.33;100.00;96820.38;4959387;28;22385;-42
2022/09/13 02:55:58;;;;;;;2.28;1.50;;;13.70;99.90;;;13.32;100.00;96820.44;4965646;28;20102;-44
2022/09/13 02:58:53;;;;;;;1.63;1.17;;;13.60;99.90;;;13.29;100.00;96825.88;4959042;28;20089;-41
2022/09/13 03:01:20;;;;;;;2.63;1.70;;;13.60;99.90;;;13.27;100.00;96830.41;4962521;28;20058;-42
2022/09/13 03:03:46;;;;;;;2.88;1.60;;;13.60;99.90;;;13.28;100.00;96826.81;4959460;28;20528;-45
2022/09/13 03:06:12;;;;;;;1.50;1.30;;;13.60;99.90;;;13.35;100.00;96836.13;4941507;28;20038;-45
2022/09/13 03:08:38;;;;;;;1.98;1.60;;;13.60;99.90;;;13.21;100.00;96806.91;4967661;28;20034;-42
2022/09/13 03:11:23;;;;;;;3.58;1.50;;;13.60;99.90;;;13.33;100.00;96817.72;4965423;28;20078;-45
2022/09/13 03:14:36;;;;;;;3.00;1.50;;;13.60;99.90;;;13.32;100.00;96805.41;4940724;28;20038;-41
2022/09/13 03:17:22;;;;;;;1.50;1.30;;;13.60;99.90;;;13.32;100.00;96804.56;4942904;28;20368;-42
2022/09/13 03:20:10;;;;;;;1.67;1.40;;;13.60;99.90;;;13.29;100.00;96797.59;4941183;28;20149;-43
2022/09/13 03:23:31;;;;;;;1.80;1.27;;;13.60;99.90;;;13.27;100.00;96791.53;4940794;28;20591;-42
2022/09/13 03:26:22;;;;;;;1.80;1.30;;;13.60;99.90;;;13.25;100.00;96787.28;4951712;28;20338;-42
2022/09/13 03:28:48;;;;;;;2.50;1.40;;;13.60;99.90;;;13.26;100.00;96800.44;4958358;28;20034;-42
2022/09/13 03:31:37;;;;;;;2.25;1.30;;;13.60;99.90;;;13.23;100.00;96784.72;4961340;28;20478;-45
2022/09/13 03:34:16;;;;;;;1.33;1.23;;;13.60;99.90;;;13.26;100.00;96786.31;4958540;28;20103;-42
2022/09/13 03:36:48;;;;;;;1.77;1.10;;;13.50;99.90;;;13.23;100.00;96787.38;4938601;28;20402;-42
2022/09/13 03:39:46;;;;;;;;;;;13.50;99.90;;;13.26;100.00;96797.78;4962915;28;20045;-43
2022/09/13 03:42:30;;;;;;;1.45;1.30;;;13.60;99.90;;;13.28;100.00;96803.84;4957373;28;20003;-43
2022/09/13 03:44:58;;;;;;;5.95;1.60;;;13.60;99.90;;;13.32;100.00;96809.84;4938873;28;20137;-42
2022/09/13 03:47:31;;;;;;;1.33;1.20;;;13.60;99.90;;;13.41;100.00;96803.19;4964540;28;20498;-42
2022/09/13 03:49:59;;;;;;;3.20;1.23;;;13.70;99.90;;;13.40;100.00;96801.47;4962760;28;20158;-43
2022/09/13 03:52:26;;;;;;;2.22;1.52;;;13.70;99.90;;;13.35;100.00;96794.66;4967484;28;20066;-43
2022/09/13 03:54:53;;;;;;;1.67;1.13;;;13.60;99.90;;;13.28;100.00;96795.03;4971521;28;20030;-44
2022/09/13 03:57:21;;;;;;;1.52;1.27;;;13.60;99.90;;;13.29;100.00;96800.25;4974386;28;20035;-43
2022/09/13 03:59:51;;;;;;;3.47;1.48;;;13.60;99.90;;;13.26;100.00;96795.16;4969705;28;20521;-44
2022/09/13 04:02:19;;;;;;;2.15;1.40;;;13.50;99.90;;;13.23;100.00;96791.81;4951820;28;20042;-43
2022/09/13 04:04:45;;;;;;;1.75;1.48;;;13.50;99.90;;;13.16;100.00;96789.50;4967229;28;20019;-43
2022/09/13 04:07:16;;;;;;;2.42;1.38;;;13.50;99.90;;;13.13;100.00;96786.19;4948922;28;20038;-43
2022/09/13 04:09:42;;;;;;;1.73;1.35;;;13.40;99.90;;;13.12;100.00;96781.84;4944465;28;20030;-43
2022/09/13 04:12:09;;;;;;;3.70;1.80;;;13.40;99.90;;;13.09;100.00;96771.41;4964349;28;20081;-45
2022/09/13 04:14:35;;;;;;;1.85;1.50;;;13.40;99.90;;;13.05;100.00;96776.03;4965731;28;20040;-44
2022/09/13 04:17:01;;;;;;;2.00;1.45;;;13.40;99.90;;;12.93;100.00;96766.13;4967989;28;20339;-44
2022/09/13 04:19:27;;;;;;;2.15;1.55;;;13.40;99.90;;;13.05;100.00;96783.97;4974571;28;20437;-43
2022/09/13 04:21:54;;;;;;;1.85;1.40;;;13.40;99.90;;;13.05;100.00;96785.78;4975232;28;20042;-42
2022/09/13 04:24:27;;;;;;;2.20;1.27;;;13.40;99.90;;;13.05;100.00;96786.63;4968693;28;20096;-45
2022/09/13 04:26:55;;;;;;;1.88;1.40;;;13.40;99.90;;;13.02;100.00;96776.19;4973652;28;20022;-44
2022/09/13 04:29:23;;;;;;;1.77;1.58;;;13.40;99.90;;;13.06;100.00;96788.31;4971872;28;20426;-45
2022/09/13 04:31:50;;;;;;;1.92;1.23;;;13.40;99.90;;;13.09;100.00;96793.44;4974731;28;20038;-44
2022/09/13 04:34:17;;;;;;;3.25;1.60;;;13.40;99.90;;;13.12;100.00;96793.28;4978833;28;20026;-44
2022/09/13 04:36:44;;;;;;;2.95;2.05;;;13.50;99.90;;;13.21;100.00;96801.63;4976667;28;20049;-44
2022/09/13 04:39:12;;;;;;;2.30;1.58;;;13.50;99.90;;;13.27;100.00;96814.53;4975122;28;20030;-42
2022/09/13 04:41:43;;;;;;;1.55;1.30;;;13.60;99.90;;;13.34;100.00;96823.84;4973809;28;20121;-43
2022/09/13 04:44:09;;;;;;;2.33;1.40;;;13.70;99.90;;;13.42;100.00;96816.31;4975909;28;20042;-44
2022/09/13 04:46:35;;;;;;;1.88;1.40;;;13.70;99.90;;;13.52;100.00;96812.19;4968548;28;20026;-45
2022/09/13 04:49:01;;;;;;;2.55;1.52;;;13.80;99.90;;;13.60;100.00;96813.53;4975452;28;20402;-43
2022/09/13 04:51:26;;;;;;;2.70;1.40;;;13.90;99.90;;;13.64;100.00;96804.47;4974455;28;20035;-45
2022/09/13 04:53:54;;;;;;;2.00;1.42;;;13.90;99.90;;;13.68;100.00;96811.31;4975847;28;20487;-43
2022/09/13 04:56:22;;;;;;;1.92;1.30;;;14.00;99.90;;;13.72;100.00;96813.66;4975965;28;20084;-43
2022/09/13 04:58:49;;;;;;;1.70;1.20;;;14.00;99.90;;;13.72;100.00;96812.81;4965658;28;20069;-44
2022/09/13 05:01:16;;;;;;;3.45;1.40;;;14.10;99.90;;;13.80;100.00;96823.84;4970101;28;20097;-43
2022/09/13 05:03:41;;;;;;;1.85;1.33;;;14.10;99.90;;;13.81;100.00;96825.53;4975751;28;20031;-42
2022/09/13 05:06:10;;;;;;;2.38;1.38;;;14.10;99.90;;;13.81;100.00;96827.34;4974861;28;20565;-44
2022/09/13 05:08:37;;;;;;;2.28;1.50;;;14.10;99.90;;;13.82;100.00;96829.03;4973747;28;20034;-44
2022/09/13 05:11:03;;;;;;;1.70;1.30;;;14.10;99.90;;;13.82;100.00;96832.53;4974558;28;20070;-43
2022/09/13 05:13:29;;;;;;;2.78;1.40;;;14.10;99.90;;;13.81;100.00;96837.94;4973844;28;20398;-43
2022/09/13 05:16:04;;;;;;;2.67;1.65;;;14.10;99.90;;;13.79;100.00;96842.47;4973506;28;20030;-42
2022/09/13 05:18:33;;;;;;;3.90;1.70;;;14.10;99.90;;;13.78;100.00;96838.94;4977616;28;20026;-43
2022/09/13 05:21:01;;;;;;;1.88;1.42;;;14.10;99.90;;;13.77;100.00;96839.06;4978129;28;20038;-42
2022/09/13 05:23:29;;;;;;;2.17;1.48;;;14.10;99.90;;;13.77;100.00;96847.03;4978336;28;20034;-44
2022/09/13 05:26:00;;;;;;;5.50;1.60;;;14.10;99.90;;;13.78;100.00;96841.59;4976590;28;20054;-42
2022/09/13 05:28:29;;;;;;;2.53;1.55;;;14.10;99.90;;;13.79;100.00;96845.13;4970004;28;20038;-42
2022/09/13 05:31:05;;;;;;;2.10;1.58;;;14.10;99.90;;;13.80;100.00;96841.50;4961057;28;20394;-42
2022/09/13 05:33:34;;;;;;;4.65;1.60;;;14.10;99.90;;;13.79;100.00;96845.97;4981080;28;20049;-41
2022/09/13 05:36:00;;;;;;;1.83;1.55;;;14.10;99.90;;;13.72;100.00;96845.47;4977968;28;20588;-43
2022/09/13 05:38:26;;;;;;;2.45;1.70;;;14.00;99.90;;;13.78;100.00;96856.66;4977114;28;20038;-42
2022/09/13 05:40:57;;;;;;;3.28;1.88;;;14.10;99.90;;;13.79;100.00;96868.97;4976336;28;20085;-42
2022/09/13 05:43:26;;;;;;;2.85;1.83;;;14.10;99.90;;;13.83;100.00;96868.69;4975936;28;20035;-43
2022/09/13 05:46:07;;;;;;;5.72;1.85;;;14.10;99.90;;;13.85;100.00;96858.84;4977886;28;20050;-42
2022/09/13 05:48:34;;;;;;;2.15;1.70;;;14.10;99.90;;;13.86;100.00;96855.28;4976171;28;20629;-43
2022/09/13 05:51:15;;;;;;;3.33;2.00;;;14.10;99.90;;;13.90;100.00;96858.59;4975000;28;20049;-43
2022/09/13 05:53:44;;;;;;;4.47;1.85;;;14.20;99.90;;;13.94;100.00;96857.47;4978179;28;20030;-42
2022/09/13 05:56:26;;;;;;;3.42;1.75;;;14.20;99.90;;;14.00;100.00;96850.94;4979404;28;20449;-43
2022/09/13 05:58:52;;;;;;;4.63;2.17;;;14.30;99.90;;;14.06;100.00;96854.09;4959905;28;20434;-39
2022/09/13 06:01:21;;;;;;;3.13;2.00;;;14.30;99.90;;;14.17;100.00;96845.47;4979390;28;20038;-40
2022/09/13 06:03:53;;;;;;;2.92;1.92;;;14.50;99.90;;;14.29;100.00;96834.13;4975791;28;20038;-39
2022/09/13 06:06:20;;;;;;;4.63;2.10;;;14.60;99.90;;;14.42;100.00;96833.41;4979963;28;20045;-40
2022/09/13 06:08:46;;;;;;;2.63;1.52;;;14.70;99.90;;;14.59;100.00;96846.50;4977943;28;20031;-40
2022/09/13 06:11:14;;;;;;;3.40;2.00;;;14.90;99.90;;;14.73;100.00;96853.59;4972949;28;20038;-39
2022/09/13 06:13:42;;;;;;;2.30;1.90;;;15.00;99.90;;;14.79;100.00;96850.56;4977002;28;20050;-40
2022/09/13 06:16:10;;;;;;;4.05;2.20;;;15.10;99.90;;;14.90;100.00;96863.16;4978671;28;20503;-40
2022/09/13 06:18:36;;;;;;;4.65;2.50;;;15.20;99.90;;;14.94;100.00;96869.16;4977387;28;20637;-40
2022/09/13 06:21:06;;;;;;;3.45;2.20;;;15.20;99.90;;;14.95;100.00;96874.34;4979321;28;20026;-39
2022/09/13 06:23:33;;;;;;;4.15;1.85;;;15.20;99.90;;;14.97;100.00;96875.13;4977776;28;20030;-39
2022/09/13 06:26:05;;;;;;;4.43;2.20;;;15.20;99.90;;;14.91;100.00;96864.84;4979088;28;20033;-40
2022/09/13 06:28:33;;;;;;;3.45;2.15;;;15.20;99.90;;;14.88;100.00;96867.72;4978414;28;20084;-40
2022/09/13 06:31:11;;;;;;;3.65;2.22;;;15.20;99.90;;;14.87;100.00;96876.63;4978139;28;20183;-39
2022/09/13 06:33:39;;;;;;;3.20;2.20;;;15.10;99.90;;;14.83;100.00;96864.50;4960933;28;20128;-40
2022/09/13 06:36:09;;;;;;;3.15;1.90;;;15.10;99.90;;;14.77;100.00;96857.78;4978817;28;20552;-40
2022/09/13 06:38:35;;;;;;;2.67;2.17;;;15.00;99.90;;;14.78;100.00;96858.63;4981595;28;20405;-41
2022/09/13 06:41:06;;;;;;;3.67;2.20;;;15.00;99.90;;;14.80;100.00;96859.38;4967986;28;20031;-41
2022/09/13 06:43:33;;;;;;;3.28;2.20;;;15.00;99.90;;;14.79;100.00;96852.38;4978952;28;20060;-40
2022/09/13 06:46:08;;;;;;;2.88;2.10;;;15.10;99.90;;;14.74;100.00;96834.09;4977751;28;20050;-41
2022/09/13 06:48:37;;;;;;;3.40;2.33;;;15.10;99.90;;;14.94;100.00;96855.88;4977010;28;20034;-41
2022/09/13 06:51:08;;;;;;;3.53;2.40;;;15.20;99.90;;;14.99;100.00;96854.63;4978075;28;20080;-40
2022/09/13 06:53:36;;;;;;;3.45;2.17;;;15.30;99.90;;;15.06;100.00;96863.91;4979128;28;20026;-40
2022/09/13 06:56:15;;;;;;;3.53;2.28;;;15.30;99.90;;;15.11;100.00;96860.97;4979755;28;20470;-39
2022/09/13 06:58:44;;;;;;;4.60;2.50;;;15.40;99.90;;;15.12;100.00;96841.41;4979974;28;20034;-41
2022/09/13 07:01:13;;;;;;;4.22;2.42;;;15.50;99.90;;;15.28;100.00;96850.09;4977781;28;20030;-40
2022/09/13 07:03:43;;;;;;;5.03;2.55;;;15.60;99.90;;;15.38;100.00;96845.06;4977771;28;20042;-40
2022/09/13 07:06:15;;;;;;;2.85;1.95;;;15.70;99.90;;;15.46;100.00;96839.22;4977849;28;20470;-40
2022/09/13 07:08:42;;;;;;;5.05;2.35;;;15.80;99.90;;;15.61;100.00;96845.31;4979375;28;20146;-40
2022/09/13 07:11:10;;;;;;;4.28;2.20;;;15.90;99.90;;;15.74;100.00;96840.94;4978394;28;20085;-41
2022/09/13 07:13:36;;;;;;;2.85;1.80;;;16.10;99.90;;;15.95;100.00;96837.78;4978981;28;20050;-41
2022/09/13 07:16:05;;;;;;;5.88;2.50;;;16.30;99.90;;;16.23;100.00;96836.78;4977266;28;20482;-41
2022/09/13 07:18:31;;;;;;;6.72;2.40;;;16.50;99.90;;;16.41;100.00;96842.63;4978001;28;20034;-40
2022/09/13 07:21:05;;;;;;;7.18;2.63;;;16.70;99.90;;;16.52;100.00;96847.22;4978535;28;20809;-41
2022/09/13 07:23:32;;;;;;;3.55;2.30;;;16.80;99.90;;;16.68;100.00;96852.31;4962916;28;21687;-41
2022/09/13 07:26:03;;;;;;;7.07;2.13;;;16.90;99.90;;;16.76;100.00;96855.28;4957543;28;20034;-40
2022/09/13 07:28:35;;;;;;;3.05;2.20;;;17.00;99.90;;;16.80;100.00;96836.31;4976308;28;20500;-40
2022/09/13 07:31:09;;;;;;;;;;;17.10;99.90;;;16.81;100.00;96813.19;4973528;28;20041;-41
2022/09/13 07:33:36;;;;;;;4.15;2.13;;;17.20;99.90;;;16.93;100.00;96825.66;4971860;28;19922;-41
2022/09/13 07:36:05;;;;;;;4.50;2.50;;;17.20;99.90;;;16.95;100.00;96822.91;4974952;28;20058;-41
2022/09/13 07:38:35;;;;;;;5.53;3.03;;;17.20;99.90;;;17.07;100.00;96831.84;4974614;28;20022;-42
2022/09/13 07:41:05;;;;;;;4.75;2.33;;;17.30;99.90;;;17.20;100.00;96842.44;4978297;28;20023;-40
2022/09/13 07:43:34;;;;;;;3.97;2.10;;;17.50;99.90;;;17.40;100.00;96838.31;4976158;28;20030;-40
2022/09/13 07:46:04;;;;;;;3.05;1.83;;;17.60;99.90;;;17.61;99.83;96842.06;4975064;28;20768;-40
2022/09/13 07:48:32;;;;;;;3.67;2.03;;;17.90;99.90;;;17.85;96.66;96841.19;4975192;28;20022;-40
2022/09/13 07:51:11;;;;;;;6.63;2.40;;;18.10;99.90;;;18.20;96.16;96851.06;4975939;28;20327;-44
2022/09/13 07:53:39;;;;;;;3.53;2.20;;;18.50;99.90;;;18.62;91.35;96851.34;4977030;28;20040;-40
2022/09/13 07:56:08;;;;;;;5.13;2.35;;;18.90;99.90;;;19.01;87.73;96857.25;4983305;28;20030;-43
2022/09/13 07:58:36;;;;;;;5.38;2.35;;;19.30;99.90;;;19.36;80.16;96859.75;4980122;28;20770;-41
2022/09/13 08:01:10;;;;;;;3.75;2.25;;;19.70;99.90;;;19.74;81.46;96845.09;4980952;28;20038;-41
2022/09/13 08:03:36;;;;;;;4.18;2.33;;;20.00;99.90;;;20.10;78.75;96848.34;4970922;28;20422;-40
2022/09/13 08:06:03;;;;;;;5.55;2.00;;;20.30;99.90;;;20.39;77.39;96853.88;4981057;28;20023;-41
2022/09/13 08:08:30;;;;;;;4.60;2.00;;;20.70;99.90;;;20.57;74.41;96851.44;4980643;28;20512;-40
2022/09/13 08:10:57;;;;;;;6.65;2.38;;;20.90;99.90;;;20.73;73.37;96840.28;4977706;28;20541;-41
2022/09/13 08:13:23;;;;;;;4.22;1.83;;;21.00;99.90;;;20.86;73.40;96828.50;4977782;28;20095;-42
2022/09/13 08:15:49;;;;;;;2.33;1.83;;;21.20;99.90;;;21.08;73.50;96833.66;4981933;28;20030;-40
2022/09/13 08:18:18;;;;;;;3.85;2.25;;;21.30;99.90;;;20.96;70.10;96808.78;4963416;28;20482;-44
2022/09/13 08:20:44;;;;;;;1.75;1.60;;;21.40;99.90;;;21.19;70.09;96845.25;4978840;28;20047;-46
2022/09/13 08:23:12;;;;;;;3.38;2.00;;;21.40;99.90;;;21.15;69.87;96842.84;4979508;28;20026;-43
2022/09/13 08:25:38;;;;;;;5.13;2.10;;;21.40;99.90;;;21.14;69.91;96840.31;4977168;28;20042;-41
2022/09/13 08:28:16;;;;;;;3.47;1.73;;;21.40;99.90;;;21.20;70.79;96838.94;4980323;28;20026;-42
2022/09/13 08:30:42;;;;;;;5.43;1.90;;;21.40;99.90;;;21.23;70.89;96839.50;4981559;28;20022;-41
2022/09/13 08:33:10;;;;;;;4.47;2.33;;;21.50;99.90;;;21.32;69.24;96836.00;4980327;28;20030;-43
2022/09/13 08:35:36;;;;;;;5.05;1.80;;;21.50;99.90;;;21.40;70.27;96837.97;4976747;28;20386;-41
2022/09/13 08:38:03;;;;;;;3.10;2.05;;;21.60;99.90;;;21.44;70.54;96833.19;4979407;28;20538;-41
2022/09/13 08:40:40;;;;;;;3.88;1.85;;;21.70;99.90;;;21.62;71.20;96844.97;4980496;28;20034;-41
2022/09/13 08:43:42;;;;;;;2.72;1.65;;;21.80;99.90;;;21.82;68.76;96829.75;4992098;23;20057;-53
2022/09/13 08:46:25;;;;;;;4.47;2.10;;;22.00;99.90;;;22.02;68.45;96829.72;4976667;28;20061;-54
2022/09/13 08:48:58;;;;;;;3.53;2.00;;;22.20;99.90;;;22.24;65.91;96821.38;4963886;28;20124;-54
2022/09/13 08:51:32;;;;;;;4.82;2.00;;;22.40;99.90;;;22.38;64.46;96827.31;4966859;28;20057;-55
2022/09/13 08:53:58;;;;;;;5.00;1.95;;;22.50;99.90;;;22.38;64.15;96828.19;4988664;28;20345;-54
2022/09/13 08:57:01;;;;;;;2.83;1.73;;;22.60;99.90;;;22.47;64.96;96831.84;4971181;28;20033;-54
2022/09/13 09:00:03;;;;;;;5.43;1.70;;;22.60;99.90;;;22.51;64.06;96829.72;4989349;28;20038;-54
2022/09/13 09:03:13;;;;;;;6.53;2.00;;;22.60;99.90;;;22.51;62.42;96827.84;4989578;28;20138;-54
2022/09/13 09:05:49;;;;;;;4.97;2.00;;;22.60;99.90;;;22.59;61.62;96821.75;4964745;28;20082;-54
2022/09/13 09:08:42;;;;;;;4.75;1.98;;;22.60;99.90;;;22.76;61.22;96818.31;4989930;28;20160;-54
2022/09/13 09:11:30;;;;;;;6.25;2.08;;;22.80;99.90;;;23.10;60.87;96809.72;4971704;28;20044;-54
2022/09/13 09:14:25;;;;;;;3.55;1.90;;;23.20;99.90;;;23.39;60.18;96820.28;4989170;28;20032;-55
2022/09/13 09:16:59;;;;;;;3.42;2.05;;;23.50;99.90;;;23.49;57.30;96814.88;4981806;28;20306;-55
2022/09/13 09:19:35;;;;;;;6.35;2.05;;;23.60;99.90;;;23.53;57.66;96820.78;4990590;28;20502;-54
2022/09/13 09:22:27;;;;;;;2.90;1.77;;;23.60;99.90;;;23.59;57.02;96825.56;4976255;28;20029;-55
2022/09/13 09:24:55;;;;;;;4.95;2.40;;;23.70;99.90;;;23.85;57.51;96827.50;4983585;28;20494;-46
2022/09/13 09:27:21;;;;;;;4.25;1.98;;;23.90;99.90;;;24.01;56.52;96827.66;4974698;28;20038;-47
2022/09/13 09:29:52;;;;;;;5.32;2.00;;;24.20;99.90;;;24.29;55.45;96825.72;4992757;28;20061;-47
2022/09/13 09:32:50;;;;;;;3.83;2.00;;;24.40;99.90;;;24.48;55.01;96831.91;4974723;28;20500;-47
2022/09/13 09:35:48;;;;;;;5.65;2.00;;;24.60;99.80;;;24.63;52.08;96824.13;4974171;28;20113;-46
2022/09/13 09:38:40;;;;;;;5.63;2.00;;;24.80;98.90;;;24.65;53.15;96819.44;4972385;28;20034;-47
2022/09/13 09:41:42;;;;;;;2.75;1.83;;;24.80;98.40;;;24.71;51.64;96816.06;4965306;28;20041;-49
2022/09/13 09:44:17;;;;;;;2.95;1.60;;;24.90;97.60;;;24.91;51.86;96828.34;4979000;28;20129;-45
2022/09/13 09:47:14;;;;;;;6.65;1.90;;;25.10;98.20;;;25.07;49.97;96824.88;4991914;28;20034;-45
2022/09/13 09:52:56;;;;;;;4.00;1.80;;;25.40;96.20;;;25.18;49.02;96837.25;4967830;28;20104;-45
2022/09/13 09:55:45;;;;;;;3.83;1.63;;;25.30;95.90;;;25.08;50.55;96837.34;4957175;28;20042;-45
2022/09/13 09:58:15;;;;;;;3.47;1.88;;;25.20;95.70;;;24.89;49.97;96838.44;4953450;28;20316;-46
2022/09/13 10:00:57;;;;;;;3.05;1.65;;;25.00;96.10;;;24.69;50.25;96839.66;4975636;28;20033;-49
2022/09/13 10:03:27;;;;;;;3.10;1.75;;;24.80;96.10;;;24.57;50.06;96837.25;4989261;28;20109;-47
2022/09/13 10:06:08;;;;;;;3.28;1.77;;;24.70;96.10;;;24.51;51.63;96839.69;4991760;28;20045;-49
2022/09/13 10:08:37;;;;;;;3.43;1.73;;;24.60;96.30;;;24.40;53.15;96848.88;4968305;28;20078;-47
2022/09/13 10:11:03;;;;;;;5.20;1.90;;;24.50;97.10;;;24.28;53.82;96850.09;4975729;28;20037;-51
2022/09/13 10:13:31;;;;;;;6.43;1.48;;;24.50;97.20;;;24.09;52.10;96848.44;4985000;28;20041;-47
2022/09/13 10:16:04;;;;;;;3.33;1.90;;;24.40;96.20;;;23.99;53.25;96841.31;4971879;28;20030;-47
2022/09/13 10:18:35;;;;;;;3.90;1.58;;;24.30;96.60;;;24.02;55.36;96840.97;4967825;28;20096;-47
2022/09/13 10:21:21;;;;;;;5.00;1.80;;;24.20;97.30;;;23.93;54.04;96836.53;4966993;28;20038;-47
2022/09/13 10:23:52;;;;;;;2.83;1.85;;;24.10;97.20;;;23.93;53.95;96839.22;4987189;28;20030;-48
2022/09/13 10:26:23;;;;;;;4.68;1.90;;;24.00;97.40;;;23.86;52.80;96830.06;4989479;28;20400;-46
2022/09/13 10:29:06;;;;;;;4.53;1.70;;;24.00;97.10;;;23.80;51.64;96830.69;4974687;28;20038;-47
2022/09/13 10:31:38;;;;;;;2.28;1.50;;;23.90;96.10;;;23.75;51.56;96827.56;4986716;28;20363;-47
2022/09/13 10:34:30;;;;;;;2.55;1.50;;;23.90;96.00;;;23.66;51.78;96817.72;4991980;28;20104;-46
2022/09/13 10:37:02;;;;;;;3.67;1.60;;;23.80;95.90;;;23.73;49.10;96819.63;4967646;28;20630;-48
2022/09/13 10:39:31;;;;;;;1.58;1.20;;;23.80;94.50;;;23.79;47.44;96819.00;4989557;28;20032;-48
2022/09/13 10:42:08;;;;;;;1.83;0.97;;;23.90;94.50;;;23.82;45.40;96813.38;4988418;28;20210;-48
2022/09/13 10:44:46;;;;;;;2.50;0.90;;;24.00;92.50;;;24.01;45.43;96823.13;4972012;28;20038;-47
2022/09/13 10:47:20;;;;;;;1.55;1.02;;;24.10;91.80;;;24.10;46.45;96818.69;4970385;28;20030;-47